createdAt,value
2023-01-28T00:01:45.915Z,13.45
2023-01-28T00:04:13.237Z,12.55
2023-01-28T00:06:40.593Z,13.20
2023-01-28T00:09:08.268Z,13.38
2023-01-28T00:11:35.523Z,13.10
2023-01-28T00:14:06.496Z,12.93
2023-01-28T00:16:33.937Z,13.65
2023-01-28T00:19:06.006Z,12.38
2023-01-28T00:21:33.320Z,10.88
2023-01-28T00:24:00.651Z,12.77
2023-01-28T00:26:28.098Z,11.80
2023-01-28T00:28:55.340Z,11.93
2023-01-28T00:31:27.267Z,12.63
2023-01-28T00:33:56.554Z,13.02
2023-01-28T00:36:26.785Z,12.63
2023-01-28T00:38:58.699Z,11.30
2023-01-28T00:41:30.094Z,12.93
2023-01-28T00:43:59.299Z,13.00
2023-01-28T00:46:27.366Z,12.50
2023-01-28T00:48:55.283Z,12.13
2023-01-28T00:51:23.166Z,12.80
2023-01-28T00:53:50.785Z,12.85
2023-01-28T00:56:19.713Z,12.20
2023-01-28T00:58:48.182Z,11.83
2023-01-28T01:01:24.358Z,11.98
2023-01-28T01:04:02.863Z,13.25
2023-01-28T01:06:39.665Z,13.18
2023-01-28T01:09:12.150Z,12.57
2023-01-28T01:11:41.157Z,13.13
2023-01-28T01:14:10.485Z,12.75
2023-01-28T01:16:38.826Z,12.27
2023-01-28T01:19:06.214Z,14.20
2023-01-28T01:21:34.692Z,15.13
2023-01-28T01:24:01.909Z,13.45
2023-01-28T01:26:29.961Z,14.20
2023-01-28T01:31:25.435Z,12.80
2023-01-28T01:33:53.431Z,12.70
2023-01-28T01:36:22.023Z,11.85
2023-01-28T01:38:55.368Z,12.73
2023-01-28T01:41:30.017Z,12.30
2023-01-28T01:44:04.529Z,10.57
2023-01-28T01:46:45.796Z,12.88
2023-01-28T01:49:28.698Z,13.00
2023-01-28T01:52:13.623Z,12.48
2023-01-28T01:54:46.237Z,12.23
2023-01-28T01:57:23.073Z,12.38
2023-01-28T01:59:50.529Z,11.95
2023-01-28T02:02:18.160Z,13.10
2023-01-28T02:04:45.970Z,12.35
2023-01-28T02:07:19.009Z,11.77
2023-01-28T02:09:46.428Z,11.18
2023-01-28T02:12:53.558Z,12.88
2023-01-28T02:15:27.012Z,10.45
2023-01-28T02:17:56.692Z,11.55
2023-01-28T02:20:46.227Z,12.82
2023-01-28T02:24:29.522Z,12.38
2023-01-28T02:27:17.551Z,10.00
2023-01-28T02:30:06.104Z,10.93
2023-01-28T02:33:09.751Z,11.55
2023-01-28T02:35:53.968Z,12.10
2023-01-28T02:38:31.846Z,10.93
2023-01-28T02:41:10.273Z,11.65
2023-01-28T02:43:47.095Z,12.27
2023-01-28T02:46:43.897Z,12.10
2023-01-28T02:49:45.256Z,10.63
2023-01-28T02:53:24.641Z,11.40
2023-01-28T02:56:05.529Z,10.82
2023-01-28T02:58:46.103Z,11.57
2023-01-28T03:01:50.660Z,11.13
2023-01-28T03:04:39.312Z,10.35
2023-01-28T03:07:09.169Z,12.27
2023-01-28T03:09:42.309Z,12.10
2023-01-28T03:12:39.207Z,12.23
2023-01-28T03:15:53.719Z,11.18
2023-01-28T03:19:08.169Z,12.02
2023-01-28T03:22:03.231Z,11.70
2023-01-28T03:25:08.581Z,10.38
2023-01-28T03:28:24.709Z,10.65
2023-01-28T03:31:35.128Z,11.15
2023-01-28T03:34:23.198Z,11.20
2023-01-28T03:36:51.692Z,11.75
2023-01-28T03:39:42.067Z,12.43
2023-01-28T03:42:15.117Z,11.38
2023-01-28T03:44:56.038Z,12.90
2023-01-28T03:47:30.883Z,12.32
2023-01-28T03:50:01.764Z,12.48
2023-01-28T03:52:33.871Z,13.00
2023-01-28T03:55:30.696Z,14.65
2023-01-28T03:57:57.990Z,13.38
2023-01-28T04:00:25.256Z,12.93
2023-01-28T04:02:53.076Z,12.23
2023-01-28T04:05:21.325Z,11.25
2023-01-28T04:07:51.622Z,12.25
2023-01-28T04:10:40.651Z,11.15
2023-01-28T04:13:18.828Z,12.43
2023-01-28T04:15:47.203Z,11.95
2023-01-28T04:18:16.155Z,11.80
2023-01-28T04:20:43.447Z,13.15
2023-01-28T04:23:11.232Z,11.73
2023-01-28T04:25:38.536Z,11.48
2023-01-28T04:28:09.443Z,12.75
2023-01-28T04:30:36.868Z,12.07
2023-01-28T04:33:24.444Z,11.70
2023-01-28T04:36:13.558Z,11.65
2023-01-28T04:38:49.971Z,11.80
2023-01-28T04:41:43.363Z,12.88
2023-01-28T04:44:26.396Z,13.52
2023-01-28T04:47:14.836Z,12.85
2023-01-28T04:49:50.731Z,10.93
2023-01-28T04:52:27.986Z,13.68
2023-01-28T04:55:02.360Z,11.10
2023-01-28T04:57:30.454Z,13.52
2023-01-28T04:59:57.754Z,12.38
2023-01-28T05:02:25.120Z,13.30
2023-01-28T05:04:53.159Z,12.52
2023-01-28T05:07:37.901Z,12.32
2023-01-28T05:10:06.473Z,12.27
2023-01-28T05:12:34.141Z,12.00
2023-01-28T05:15:05.623Z,13.05
2023-01-28T05:17:32.881Z,12.00
2023-01-28T05:20:00.159Z,12.85
2023-01-28T05:22:29.230Z,12.13
2023-01-28T05:25:20.050Z,12.20
2023-01-28T05:27:52.426Z,13.15
2023-01-28T05:30:21.416Z,13.32
2023-01-28T05:32:49.070Z,13.45
2023-01-28T05:35:20.891Z,13.30
2023-01-28T05:37:48.115Z,13.57
2023-01-28T05:40:17.949Z,13.95
2023-01-28T05:42:45.424Z,14.13
2023-01-28T05:45:35.559Z,12.82
2023-01-28T05:48:07.273Z,13.23
2023-01-28T05:50:48.197Z,11.35
2023-01-28T05:53:21.427Z,12.93
2023-01-28T05:55:51.874Z,13.63
2023-01-28T05:58:21.261Z,13.90
2023-01-28T06:00:48.616Z,12.88
2023-01-28T06:03:23.047Z,13.00
2023-01-28T06:05:50.519Z,13.82
2023-01-28T06:08:17.785Z,13.10
2023-01-28T06:10:48.605Z,12.00
2023-01-28T06:13:18.381Z,12.13
2023-01-28T06:16:11.682Z,11.13
2023-01-28T06:18:45.172Z,11.57
2023-01-28T06:21:12.473Z,11.70
2023-01-28T06:23:39.929Z,11.80
2023-01-28T06:26:09.299Z,13.02
2023-01-28T06:28:38.268Z,12.25
2023-01-28T06:31:05.760Z,12.95
2023-01-28T06:33:33.259Z,13.48
2023-01-28T06:36:04.840Z,12.38
2023-01-28T06:38:32.367Z,11.65
2023-01-28T06:40:59.704Z,10.85
2023-01-28T06:43:30.938Z,11.85
2023-01-28T06:45:58.913Z,10.50
2023-01-28T06:48:28.051Z,12.27
2023-01-28T06:50:55.336Z,13.48
2023-01-28T06:53:22.612Z,12.35
2023-01-28T06:55:50.046Z,17.30
2023-01-28T06:58:18.721Z,15.18
2023-01-28T07:03:13.434Z,13.57
2023-01-28T07:05:40.927Z,13.50
2023-01-28T07:08:08.221Z,12.48
2023-01-28T07:10:35.512Z,11.55
2023-01-28T07:13:03.502Z,14.75
2023-01-28T07:15:30.795Z,11.75
2023-01-28T07:17:59.024Z,10.27
2023-01-28T07:20:26.874Z,11.35
2023-01-28T07:22:54.234Z,11.57
2023-01-28T07:25:21.759Z,13.13
2023-01-28T07:27:53.796Z,10.93
2023-01-28T07:30:22.202Z,12.85
2023-01-28T07:32:58.505Z,13.95
2023-01-28T07:35:26.931Z,11.20
2023-01-28T07:38:00.613Z,11.98
2023-01-28T07:40:29.559Z,13.32
2023-01-28T07:45:26.156Z,13.30
2023-01-28T07:48:06.613Z,13.27
2023-01-28T07:50:37.972Z,12.63
2023-01-28T07:53:10.658Z,13.45
2023-01-28T07:55:39.049Z,13.13
2023-01-28T07:58:08.430Z,13.77
2023-01-28T08:00:38.600Z,17.10
2023-01-28T08:03:15.703Z,14.93
2023-01-28T08:05:53.181Z,13.88
2023-01-28T08:08:20.657Z,15.30
2023-01-28T08:10:48.543Z,13.95
2023-01-28T08:13:17.580Z,16.80
2023-01-28T08:15:46.283Z,17.05
2023-01-28T08:18:16.750Z,21.20
2023-01-28T08:20:46.386Z,14.02
2023-01-28T08:23:19.693Z,15.63
2023-01-28T08:25:48.010Z,14.10
2023-01-28T08:28:17.406Z,14.13
2023-01-28T08:30:45.570Z,14.07
2023-01-28T08:33:18.994Z,15.27
2023-01-28T08:35:46.941Z,15.90
2023-01-28T08:38:16.183Z,15.13
2023-01-28T08:40:43.385Z,15.27
2023-01-28T08:43:10.708Z,15.52
2023-01-28T08:45:40.614Z,13.73
2023-01-28T08:48:14.106Z,14.45
2023-01-28T08:50:41.401Z,14.85
2023-01-28T08:53:16.953Z,15.75
2023-01-28T08:55:45.773Z,15.07
2023-01-28T08:58:17.546Z,16.15
2023-01-28T09:00:46.429Z,14.27
2023-01-28T09:03:13.859Z,18.98
2023-01-28T09:05:41.267Z,13.55
2023-01-28T09:08:14.826Z,14.55
2023-01-28T09:10:42.439Z,16.02
2023-01-28T09:13:15.939Z,15.05
2023-01-28T09:15:43.698Z,14.05
2023-01-28T09:18:11.517Z,16.30
2023-01-28T09:20:39.023Z,15.52
2023-01-28T09:23:07.350Z,14.57
2023-01-28T09:25:36.271Z,14.85
2023-01-28T09:28:04.886Z,13.93
2023-01-28T09:30:33.583Z,14.43
2023-01-28T09:33:01.679Z,13.50
2023-01-28T09:35:29.047Z,12.52
2023-01-28T09:38:00.172Z,15.82
2023-01-28T09:40:38.415Z,12.25
2023-01-28T09:43:42.442Z,14.85
2023-01-28T09:46:15.076Z,15.65
2023-01-28T09:48:52.969Z,14.00
2023-01-28T09:51:42.325Z,13.05
2023-01-28T09:54:43.821Z,13.60
2023-01-28T09:57:31.991Z,11.82
2023-01-28T09:59:59.673Z,14.00
2023-01-28T10:03:13.436Z,12.60
2023-01-28T10:06:01.519Z,13.95
2023-01-28T10:09:02.559Z,12.23
2023-01-28T10:11:41.760Z,16.48
2023-01-28T10:15:16.801Z,13.50
2023-01-28T10:18:00.974Z,12.40
2023-01-28T10:21:02.236Z,14.18
2023-01-28T10:24:21.365Z,14.48
2023-01-28T10:26:48.583Z,13.73
2023-01-28T10:29:27.971Z,12.57
2023-01-28T10:32:34.113Z,12.85
2023-01-28T10:35:03.057Z,14.05
2023-01-28T10:37:36.997Z,13.07
2023-01-28T10:40:06.089Z,13.90
2023-01-28T10:42:37.488Z,12.15
2023-01-28T10:45:25.493Z,12.82
2023-01-28T10:48:23.165Z,12.80
2023-01-28T10:50:59.573Z,13.93
2023-01-28T10:53:40.863Z,12.05
2023-01-28T10:56:35.999Z,13.40
2023-01-28T10:59:30.034Z,12.88
2023-01-28T11:02:03.810Z,13.55
2023-01-28T11:04:35.398Z,13.02
2023-01-28T11:07:19.087Z,13.68
2023-01-28T11:09:50.790Z,13.10
2023-01-28T11:12:31.006Z,13.63
2023-01-28T11:15:06.117Z,12.32
2023-01-28T11:17:39.464Z,14.45
2023-01-28T11:20:19.906Z,14.38
2023-01-28T11:22:48.581Z,18.73
2023-01-28T11:25:32.550Z,14.18
2023-01-28T11:28:05.251Z,16.13
2023-01-28T11:30:40.156Z,12.90
2023-01-28T11:34:00.838Z,23.33
2023-01-28T11:36:33.639Z,16.85
2023-01-28T11:39:14.593Z,16.83
2023-01-28T11:41:42.505Z,14.70
2023-01-28T11:44:26.472Z,14.13
2023-01-28T11:47:51.752Z,14.75
2023-01-28T11:51:04.952Z,13.95
2023-01-28T11:54:14.791Z,13.50
2023-01-28T11:57:12.886Z,13.55
2023-01-28T12:00:19.677Z,12.57
2023-01-28T12:03:28.046Z,12.23
2023-01-28T12:06:24.459Z,13.43
2023-01-28T12:09:20.828Z,15.00
2023-01-28T12:12:27.327Z,13.68
2023-01-28T12:15:20.474Z,12.32
2023-01-28T12:18:13.082Z,13.57
2023-01-28T12:21:08.302Z,12.73
2023-01-28T12:24:22.599Z,12.98
2023-01-28T12:27:17.013Z,12.98
2023-01-28T12:30:04.280Z,13.27
2023-01-28T12:32:59.952Z,11.70
2023-01-28T12:36:24.484Z,12.20
2023-01-28T12:39:36.787Z,10.80
2023-01-28T12:42:19.892Z,11.38
2023-01-28T12:45:02.938Z,12.45
2023-01-28T12:47:38.099Z,12.18
2023-01-28T12:50:31.252Z,11.70
2023-01-28T12:56:15.780Z,10.93
2023-01-28T12:59:18.519Z,12.82
2023-01-28T13:02:00.467Z,9.77
2023-01-28T13:05:02.482Z,11.48
2023-01-28T13:07:42.450Z,9.70
2023-01-28T13:10:36.784Z,11.93
2023-01-28T13:13:05.809Z,11.77
2023-01-28T13:15:36.913Z,10.57
2023-01-28T13:18:05.982Z,12.20
2023-01-28T13:20:55.557Z,10.23
2023-01-28T13:23:45.499Z,10.77
2023-01-28T13:26:20.046Z,10.90
2023-01-28T13:28:53.691Z,9.68
2023-01-28T13:31:24.399Z,10.73
2023-01-28T13:33:54.540Z,10.85
2023-01-28T13:36:49.122Z,10.25
2023-01-28T13:39:23.188Z,11.80
2023-01-28T13:42:07.462Z,11.55
2023-01-28T13:44:37.938Z,13.57
2023-01-28T13:47:08.443Z,12.48
2023-01-28T13:49:51.313Z,11.55
2023-01-28T13:52:52.063Z,12.55
2023-01-28T13:55:44.217Z,11.02
2023-01-28T13:58:57.359Z,13.85
2023-01-28T14:02:09.858Z,14.68
2023-01-28T14:05:20.316Z,13.93
2023-01-28T14:08:59.811Z,15.85
2023-01-28T14:12:13.733Z,13.82
2023-01-28T14:15:24.021Z,14.25
2023-01-28T14:17:57.405Z,14.27
2023-01-28T14:20:37.948Z,13.05
2023-01-28T14:23:16.545Z,11.73
2023-01-28T14:26:37.134Z,14.05
2023-01-28T14:29:42.345Z,12.25
2023-01-28T14:32:29.627Z,12.82
2023-01-28T14:35:07.358Z,9.88
2023-01-28T14:37:35.343Z,11.73
2023-01-28T14:40:15.644Z,12.40
2023-01-28T14:42:49.101Z,12.45
2023-01-28T14:45:59.810Z,12.45
2023-01-28T14:49:05.924Z,11.18
2023-01-28T14:52:02.075Z,8.57
2023-01-28T14:54:53.708Z,8.85
2023-01-28T14:57:57.555Z,9.15
2023-01-28T15:00:31.449Z,7.97
2023-01-28T15:02:59.379Z,9.45
2023-01-28T15:05:31.752Z,10.52
2023-01-28T15:07:59.030Z,9.40
2023-01-28T15:10:37.126Z,11.43
2023-01-28T15:13:16.418Z,7.57
2023-01-28T15:15:52.137Z,11.77
2023-01-28T15:18:28.575Z,11.75
2023-01-28T15:20:56.719Z,12.88
2023-01-28T15:23:43.919Z,9.38
2023-01-28T15:28:48.698Z,9.35
2023-01-28T15:31:30.040Z,10.45
2023-01-28T15:34:13.623Z,9.95
2023-01-28T15:36:41.704Z,11.05
2023-01-28T15:39:22.582Z,11.40
2023-01-28T15:42:04.241Z,10.95
2023-01-28T15:44:44.900Z,12.18
2023-01-28T15:47:29.402Z,9.98
2023-01-28T15:50:05.485Z,10.07
2023-01-28T15:52:41.530Z,12.93
2023-01-28T15:55:38.194Z,11.52
2023-01-28T15:58:28.956Z,11.50
2023-01-28T16:01:09.774Z,11.63
2023-01-28T16:03:41.805Z,11.98
2023-01-28T16:06:22.064Z,12.77
2023-01-28T16:09:19.280Z,11.20
2023-01-28T16:11:46.704Z,11.50
2023-01-28T16:14:40.524Z,12.30
2023-01-28T16:17:08.899Z,11.55
2023-01-28T16:19:46.030Z,12.00
2023-01-28T16:22:39.670Z,13.68
2023-01-28T16:25:22.086Z,11.38
2023-01-28T16:27:50.035Z,11.38
2023-01-28T16:30:18.240Z,13.60
2023-01-28T16:32:45.932Z,12.57
2023-01-28T16:35:24.852Z,13.45
2023-01-28T16:37:52.391Z,12.63
2023-01-28T16:40:24.431Z,12.80
2023-01-28T16:42:55.879Z,12.63
2023-01-28T16:45:26.507Z,12.85
2023-01-28T16:47:53.963Z,14.32
2023-01-28T16:50:22.074Z,12.68
2023-01-28T16:52:53.813Z,15.05
2023-01-28T16:55:22.749Z,12.93
2023-01-28T16:57:56.051Z,13.57
2023-01-28T17:00:27.401Z,13.27
2023-01-28T17:02:55.371Z,12.75
2023-01-28T17:05:23.397Z,12.20
2023-01-28T17:07:50.916Z,12.32
2023-01-28T17:10:20.564Z,12.57
2023-01-28T17:12:50.711Z,13.13
2023-01-28T17:15:18.430Z,13.60
2023-01-28T17:17:49.528Z,12.70
2023-01-28T17:20:17.859Z,12.05
2023-01-28T17:22:45.811Z,13.10
2023-01-28T17:25:14.773Z,13.82
2023-01-28T17:27:42.213Z,14.93
2023-01-28T17:30:10.808Z,15.15
2023-01-28T17:32:38.084Z,13.57
2023-01-28T17:35:06.615Z,11.70
2023-01-28T17:37:33.889Z,13.52
2023-01-28T17:40:01.187Z,13.63
2023-01-28T17:42:28.879Z,14.52
2023-01-28T17:44:57.062Z,12.82
2023-01-28T17:47:24.356Z,15.30
2023-01-28T17:49:51.624Z,12.80
2023-01-28T17:52:18.863Z,13.32
2023-01-28T17:54:46.104Z,14.07
2023-01-28T17:57:13.379Z,14.18
2023-01-28T17:59:40.657Z,14.00
2023-01-28T18:02:11.878Z,14.88
2023-01-28T18:04:43.485Z,16.63
2023-01-28T18:07:11.405Z,13.80
2023-01-28T18:09:46.111Z,14.95
2023-01-28T18:12:16.469Z,15.27
2023-01-28T18:14:43.799Z,14.70
2023-01-28T18:17:11.346Z,15.65
2023-01-28T18:19:38.624Z,16.38
2023-01-28T18:22:06.061Z,17.52
2023-01-28T18:24:33.481Z,16.77
2023-01-28T18:27:02.399Z,16.85
2023-01-28T18:31:59.613Z,14.45
2023-01-28T18:34:31.518Z,12.63
2023-01-28T18:36:59.223Z,15.60
2023-01-28T18:39:31.122Z,15.07
2023-01-28T18:41:59.421Z,15.68
2023-01-28T18:44:30.443Z,16.08
2023-01-28T18:46:57.720Z,16.25
2023-01-28T18:49:25.379Z,15.88
2023-01-28T18:51:52.728Z,16.45
2023-01-28T18:54:20.487Z,16.27
2023-01-28T18:56:49.639Z,15.88
2023-01-28T18:59:17.045Z,15.30
2023-01-28T19:01:47.583Z,17.90
2023-01-28T19:04:15.578Z,18.35
2023-01-28T19:06:43.388Z,18.40
2023-01-28T19:09:14.359Z,17.45
2023-01-28T19:11:42.762Z,18.83
2023-01-28T19:14:14.351Z,19.52
2023-01-28T19:16:41.929Z,16.80
2023-01-28T19:19:09.479Z,18.42
2023-01-28T19:21:37.734Z,18.77
2023-01-28T19:24:09.737Z,18.67
2023-01-28T19:26:38.546Z,20.20
2023-01-28T19:29:12.476Z,17.67
2023-01-28T19:31:41.485Z,18.05
2023-01-28T19:34:10.721Z,20.05
2023-01-28T19:36:38.053Z,17.63
2023-01-28T19:39:09.011Z,19.33
2023-01-28T19:41:37.330Z,18.55
2023-01-28T19:44:06.213Z,19.42
2023-01-28T19:49:06.355Z,18.33
2023-01-28T19:51:33.908Z,18.42
2023-01-28T19:54:01.197Z,18.45
2023-01-28T19:56:29.949Z,17.75
2023-01-28T19:58:57.323Z,18.27
2023-01-28T20:01:30.235Z,17.02
2023-01-28T20:04:00.431Z,16.30
2023-01-28T20:06:31.346Z,19.75
2023-01-28T20:09:08.995Z,16.13
2023-01-28T20:11:36.608Z,16.38
2023-01-28T20:14:03.857Z,17.15
2023-01-28T20:16:34.965Z,17.10
2023-01-28T20:19:05.830Z,17.23
2023-01-28T20:21:34.728Z,17.95
2023-01-28T20:26:37.477Z,15.88
2023-01-28T20:29:20.660Z,14.63
2023-01-28T20:32:04.998Z,15.63
2023-01-28T20:34:35.928Z,16.58
2023-01-28T20:37:03.848Z,15.55
2023-01-28T20:39:31.157Z,16.25
2023-01-28T20:41:58.538Z,17.85
2023-01-28T20:44:26.710Z,16.85
2023-01-28T20:46:54.000Z,15.55
2023-01-28T20:49:21.280Z,16.17
2023-01-28T20:51:48.722Z,17.92
2023-01-28T20:54:17.691Z,17.58
2023-01-28T20:56:45.325Z,26.55
2023-01-28T20:59:13.319Z,27.30
2023-01-28T21:01:41.612Z,22.58
2023-01-28T21:04:10.810Z,19.08
2023-01-28T21:06:41.931Z,18.42
2023-01-28T21:09:10.212Z,17.75
2023-01-28T21:11:37.506Z,23.55
2023-01-28T21:14:04.753Z,25.27
2023-01-28T21:16:32.176Z,19.60
2023-01-28T21:18:59.664Z,19.67
2023-01-28T21:21:28.979Z,18.77
2023-01-28T21:23:59.793Z,20.40
2023-01-28T21:26:27.883Z,19.55
2023-01-28T21:28:56.130Z,18.67
2023-01-28T21:31:26.548Z,18.80
2023-01-28T21:33:57.944Z,18.30
2023-01-28T21:36:26.477Z,18.17
2023-01-28T21:38:58.137Z,17.13
2023-01-28T21:41:25.875Z,17.67
2023-01-28T21:43:55.277Z,17.58
2023-01-28T21:46:31.788Z,16.42
2023-01-28T21:49:03.559Z,17.70
2023-01-28T21:51:45.686Z,15.55
2023-01-28T21:54:20.428Z,16.30
2023-01-28T21:56:50.520Z,17.75
2023-01-28T21:59:29.390Z,16.38
2023-01-28T22:02:13.040Z,18.05
2023-01-28T22:04:46.229Z,18.65
2023-01-28T22:07:18.611Z,18.23
2023-01-28T22:09:47.763Z,16.55
2023-01-28T22:12:15.915Z,20.83
2023-01-28T22:14:44.173Z,16.88
2023-01-28T22:17:11.912Z,17.05
2023-01-28T22:19:39.698Z,17.02
2023-01-28T22:22:07.715Z,17.08
2023-01-28T22:24:35.045Z,18.40
2023-01-28T22:27:02.373Z,16.13
2023-01-28T22:29:29.527Z,18.00
2023-01-28T22:31:56.902Z,18.38
2023-01-28T22:34:24.331Z,17.02
2023-01-28T22:36:51.869Z,17.27
2023-01-28T22:39:19.704Z,18.17
2023-01-28T22:41:47.807Z,17.02
2023-01-28T22:44:16.012Z,17.40
2023-01-28T22:46:43.307Z,17.38
2023-01-28T22:49:14.901Z,19.02
2023-01-28T22:51:42.962Z,16.73
2023-01-28T22:54:12.076Z,17.70
2023-01-28T22:56:40.199Z,17.15
2023-01-28T22:59:07.480Z,15.77
2023-01-28T23:01:35.849Z,18.75
2023-01-28T23:04:03.135Z,17.30
2023-01-28T23:06:31.072Z,17.45
2023-01-28T23:08:58.382Z,15.52
2023-01-28T23:11:27.384Z,17.48
2023-01-28T23:14:17.996Z,16.58
2023-01-28T23:17:05.116Z,15.40
2023-01-28T23:19:51.867Z,18.45
2023-01-28T23:22:52.620Z,15.73
2023-01-28T23:25:20.525Z,15.35
2023-01-28T23:27:47.887Z,15.02
2023-01-28T23:30:16.100Z,17.10
2023-01-28T23:32:48.853Z,15.95
2023-01-28T23:35:18.875Z,14.57
2023-01-28T23:37:47.282Z,16.75
2023-01-28T23:40:15.964Z,15.05
2023-01-28T23:42:49.914Z,15.73
2023-01-28T23:45:18.326Z,16.27
2023-01-28T23:47:45.839Z,16.00
2023-01-28T23:50:13.280Z,16.98
2023-01-28T23:52:40.936Z,15.68
2023-01-28T23:55:08.717Z,14.38
2023-01-28T23:57:36.707Z,15.82
